Time;durP1;ratioP1;P1;durP2;ratioP2;P2;SDS_P1;SDS_P2;PMS_P1;PMS_P2;Temp;Humidity;BMP_temperature;BMP_pressure;BME280_temperature;BME280_humidity;BME280_pressure;Samples;Min_cycle;Max_cycle;Signal;HPM_P1;HPM_P2
2023/07/28 00:00:13;;;;;;;82.25;30.65;;;16.90;99.90;;;;;;5092674;28;20558;-56
2023/07/28 00:02:38;;;;;;;69.97;28.63;;;16.90;99.90;;;;;;5110205;28;20063;-56
2023/07/28 00:05:04;;;;;;;74.32;28.77;;;16.90;99.90;;;;;;5099635;28;20401;-56
2023/07/28 00:07:30;;;;;;;77.03;28.83;;;16.90;99.90;;;;;;5073825;28;20036;-56
2023/07/28 00:09:55;;;;;;;64.45;28.02;;;16.80;99.90;;;;;;5092269;28;20050;-56
2023/07/28 00:12:22;;;;;;;85.55;29.15;;;16.90;99.90;;;;;;5092390;28;20503;-56
2023/07/28 00:14:47;;;;;;;77.53;29.15;;;16.90;99.90;;;;;;5092029;28;20166;-56
2023/07/28 00:17:13;;;;;;;74.63;29.38;;;16.90;99.90;;;;;;5074299;28;20492;-56
2023/07/28 00:19:38;;;;;;;57.58;26.42;;;16.90;99.90;;;;;;5092197;28;20027;-56
2023/07/28 00:22:04;;;;;;;61.47;27.40;;;16.90;99.90;;;;;;5091851;28;20016;-56
2023/07/28 00:24:29;;;;;;;57.60;26.33;;;16.90;99.90;;;;;;5091802;28;20523;-56
2023/07/28 00:26:55;;;;;;;59.00;25.80;;;16.90;99.90;;;;;;5092013;28;20515;-56
2023/07/28 00:29:20;;;;;;;86.65;30.05;;;16.90;99.90;;;;;;5092278;28;20414;-56
2023/07/28 00:31:46;;;;;;;78.97;30.00;;;16.90;99.90;;;;;;5102320;28;20040;-56
2023/07/28 00:34:11;;;;;;;59.08;26.50;;;16.80;99.90;;;;;;5106286;28;20020;-56
2023/07/28 00:36:37;;;;;;;59.40;25.98;;;16.90;99.90;;;;;;5091605;28;20118;-56
2023/07/28 00:39:02;;;;;;;49.03;23.40;;;16.90;99.90;;;;;;5091971;28;20019;-56
2023/07/28 00:41:28;;;;;;;67.82;25.40;;;16.90;99.90;;;;;;5091872;28;20476;-56
2023/07/28 00:43:53;;;;;;;58.65;24.38;;;16.80;99.90;;;;;;5073241;28;20027;-56
2023/07/28 00:46:19;;;;;;;40.58;21.33;;;16.80;99.90;;;;;;5091703;28;20020;-56
2023/07/28 00:48:45;;;;;;;51.55;22.70;;;16.80;99.90;;;;;;5090405;28;20085;-56
2023/07/28 00:51:11;;;;;;;62.70;24.88;;;16.90;99.90;;;;;;5091161;28;20115;-56
2023/07/28 00:53:37;;;;;;;46.40;22.40;;;16.90;99.90;;;;;;5091006;28;20028;-56
2023/07/28 00:56:03;;;;;;;51.72;24.27;;;16.90;99.90;;;;;;5091292;28;20361;-56
2023/07/28 00:58:30;;;;;;;57.28;22.90;;;16.80;99.90;;;;;;5091116;28;20016;-56
2023/07/28 01:00:56;;;;;;;42.03;21.75;;;16.80;99.90;;;;;;5094379;28;20133;-56
2023/07/28 01:03:22;;;;;;;50.95;22.65;;;16.90;99.90;;;;;;5097247;28;20508;-56
2023/07/28 01:06:12;;;;;;;51.85;22.35;;;16.80;99.90;;;;;;5072739;28;20039;-56
2023/07/28 01:08:37;;;;;;;45.22;19.73;;;16.80;99.90;;;;;;5089600;28;20024;-56
2023/07/28 01:11:03;;;;;;;50.03;22.13;;;16.80;99.90;;;;;;5091163;28;20113;-56
2023/07/28 01:13:28;;;;;;;41.28;20.80;;;16.80;99.90;;;;;;5090515;28;20504;-56
2023/07/28 01:15:54;;;;;;;43.90;20.02;;;16.80;99.90;;;;;;5090966;28;20087;-56
2023/07/28 01:18:20;;;;;;;38.53;19.77;;;16.80;99.90;;;;;;5090877;28;20058;-56
2023/07/28 01:20:47;;;;;;;59.63;21.77;;;16.80;99.90;;;;;;5090931;28;20436;-56
2023/07/28 01:23:26;;;;;;;46.53;21.45;;;16.80;99.90;;;;;;5071832;28;20024;-56
2023/07/28 01:26:05;;;;;;;62.15;23.30;;;16.80;99.90;;;;;;5090547;28;20024;-55
2023/07/28 01:28:34;;;;;;;55.13;22.63;;;16.80;99.90;;;;;;5090489;28;20463;-55
2023/07/28 01:31:02;;;;;;;45.05;21.05;;;16.80;99.90;;;;;;5085792;28;20534;-55
2023/07/28 01:33:27;;;;;;;56.45;23.85;;;16.80;99.90;;;;;;5110414;28;20023;-55
2023/07/28 01:35:53;;;;;;;43.28;21.10;;;16.80;99.90;;;;;;5091703;28;20027;-55
2023/07/28 01:38:19;;;;;;;75.35;25.05;;;16.80;99.90;;;;;;5090764;28;20028;-56
2023/07/28 01:40:44;;;;;;;47.40;20.88;;;16.80;99.90;;;;;;5090110;28;20094;-55
2023/07/28 01:43:10;;;;;;;51.63;23.25;;;16.80;99.90;;;;;;5096045;28;20052;-55
2023/07/28 01:45:35;;;;;;;75.18;26.58;;;16.80;99.90;;;;;;5097406;28;20497;-56
2023/07/28 01:48:01;;;;;;;57.88;22.58;;;16.80;99.90;;;;;;5099661;28;20059;-56
2023/07/28 01:50:26;;;;;;;56.55;24.30;;;16.80;99.90;;;;;;5095264;28;20399;-55
2023/07/28 01:52:52;;;;;;;47.22;22.48;;;16.80;99.90;;;;;;5089958;28;20078;-55
2023/07/28 01:55:17;;;;;;;56.33;23.63;;;16.80;99.90;;;;;;5090214;28;20024;-55
2023/07/28 01:57:54;;;;;;;51.13;22.85;;;16.80;99.90;;;;;;5090192;28;20381;-55
2023/07/28 02:00:20;;;;;;;58.08;23.58;;;16.80;99.90;;;;;;5089800;28;20016;-55
2023/07/28 02:02:47;;;;;;;44.20;21.58;;;16.80;99.90;;;;;;5108149;28;20480;-55
2023/07/28 02:05:12;;;;;;;66.43;24.77;;;16.80;99.90;;;;;;5096671;28;20097;-55
2023/07/28 02:07:38;;;;;;;64.43;26.90;;;16.80;99.90;;;;;;5089839;28;20098;-55
2023/07/28 02:10:04;;;;;;;60.60;26.30;;;16.80;99.90;;;;;;5090059;28;20035;-55
2023/07/28 02:12:29;;;;;;;60.67;25.52;;;16.70;99.90;;;;;;5089952;28;20168;-55
2023/07/28 02:14:55;;;;;;;58.00;24.73;;;16.80;99.90;;;;;;5090042;28;20028;-55
2023/07/28 02:17:21;;;;;;;63.90;25.23;;;16.70;99.90;;;;;;5089927;28;20020;-55
2023/07/28 02:19:47;;;;;;;62.30;24.77;;;16.70;99.90;;;;;;5089732;28;20028;-55
2023/07/28 02:22:12;;;;;;;60.30;24.80;;;16.70;99.90;;;;;;5089337;28;20020;-55
2023/07/28 02:24:38;;;;;;;62.67;25.98;;;16.70;99.90;;;;;;5089434;28;20051;-55
2023/07/28 02:27:04;;;;;;;76.85;28.00;;;16.70;99.90;;;;;;5089715;28;20103;-55
2023/07/28 02:29:29;;;;;;;71.07;27.02;;;16.70;99.90;;;;;;5089717;28;20392;-55
2023/07/28 02:31:55;;;;;;;56.70;25.08;;;16.70;99.90;;;;;;5100438;28;20098;-55
2023/07/28 02:34:20;;;;;;;50.53;22.90;;;16.80;99.90;;;;;;5103222;28;20477;-56
2023/07/28 02:36:46;;;;;;;54.75;24.05;;;16.70;99.90;;;;;;5089375;28;20060;-56
2023/07/28 02:39:11;;;;;;;45.10;23.20;;;16.70;99.90;;;;;;5089649;28;20050;-56
2023/07/28 02:41:37;;;;;;;58.60;24.52;;;16.70;99.90;;;;;;5071436;28;20052;-56
2023/07/28 02:44:02;;;;;;;48.67;24.10;;;16.70;99.90;;;;;;5089204;28;20051;-56
2023/07/28 02:46:28;;;;;;;42.60;20.83;;;16.70;99.90;;;;;;5089464;28;20093;-55
2023/07/28 02:48:53;;;;;;;51.33;23.15;;;16.80;99.90;;;;;;5089075;28;20030;-56
2023/07/28 02:51:19;;;;;;;44.72;21.80;;;16.80;99.90;;;;;;5089559;28;20267;-55
2023/07/28 02:53:44;;;;;;;59.35;23.00;;;16.70;99.90;;;;;;5088664;28;20370;-55
2023/07/28 02:56:10;;;;;;;52.55;23.98;;;16.80;99.90;;;;;;5089400;28;20051;-54
2023/07/28 02:58:35;;;;;;;75.45;25.73;;;16.80;99.90;;;;;;5088531;28;20040;-54
2023/07/28 03:01:01;;;;;;;62.47;25.77;;;16.70;99.90;;;;;;5089851;28;20023;-53
2023/07/28 03:03:27;;;;;;;46.63;22.38;;;16.70;99.90;;;;;;5090660;28;20394;-53
2023/07/28 03:05:53;;;;;;;55.78;24.55;;;16.70;99.90;;;;;;5089204;28;20031;-54
2023/07/28 03:08:19;;;;;;;52.72;22.98;;;16.70;99.90;;;;;;5089174;28;20024;-54
2023/07/28 03:10:45;;;;;;;49.72;24.08;;;16.80;99.90;;;;;;5088964;28;20032;-54
2023/07/28 03:13:10;;;;;;;54.80;24.00;;;16.70;99.90;;;;;;5087909;28;20345;-53
2023/07/28 03:15:36;;;;;;;45.95;23.25;;;16.80;99.90;;;;;;5070875;28;20048;-55
2023/07/28 03:18:01;;;;;;;43.63;21.02;;;16.70;99.90;;;;;;5089132;28;20443;-54
2023/07/28 03:20:27;;;;;;;49.33;22.88;;;16.70;99.90;;;;;;5088947;28;20028;-53
2023/07/28 03:22:54;;;;;;;52.55;21.85;;;16.70;99.90;;;;;;5088404;28;20594;-53
2023/07/28 03:25:20;;;;;;;42.35;20.23;;;16.70;99.90;;;;;;5088662;28;20104;-54
2023/07/28 03:27:45;;;;;;;56.40;22.23;;;16.70;99.90;;;;;;5088913;28;20477;-54
2023/07/28 03:30:11;;;;;;;44.90;20.40;;;16.80;99.90;;;;;;5088917;28;20311;-55
2023/07/28 03:32:37;;;;;;;47.47;20.48;;;16.70;99.90;;;;;;5105027;28;20059;-55
2023/07/28 03:35:04;;;;;;;45.10;20.23;;;16.70;99.90;;;;;;5096959;28;20111;-54
2023/07/28 03:37:33;;;;;;;49.20;20.45;;;16.70;99.90;;;;;;5088477;28;20026;-55
2023/07/28 03:39:59;;;;;;;41.65;18.20;;;16.70;99.90;;;;;;5086588;28;20024;-54
2023/07/28 03:42:24;;;;;;;42.50;17.83;;;16.70;99.90;;;;;;5088793;28;20137;-55
2023/07/28 03:44:50;;;;;;;43.70;18.92;;;16.70;99.90;;;;;;5088437;28;20056;-55
2023/07/28 03:47:15;;;;;;;36.42;16.70;;;16.70;99.90;;;;;;5070509;28;20035;-55
2023/07/28 03:49:41;;;;;;;36.88;16.35;;;16.80;99.90;;;;;;5088591;28;20024;-56
2023/07/28 03:52:07;;;;;;;31.55;15.18;;;16.70;99.90;;;;;;5088501;28;20028;-56
2023/07/28 03:54:33;;;;;;;44.15;16.17;;;16.70;99.90;;;;;;5088052;28;20047;-55
2023/07/28 03:56:59;;;;;;;30.88;15.38;;;16.70;99.90;;;;;;5088525;28;20085;-54
2023/07/28 03:59:24;;;;;;;29.85;13.80;;;16.70;99.90;;;;;;5088280;28;20462;-54
2023/07/28 04:01:50;;;;;;;33.55;14.27;;;16.70;99.90;;;;;;5092253;28;20028;-53
2023/07/28 04:04:15;;;;;;;36.15;14.52;;;16.80;99.90;;;;;;5091944;28;20039;-54
2023/07/28 04:06:46;;;;;;;31.83;13.77;;;16.70;99.90;;;;;;5069620;28;20027;-54
2023/07/28 04:09:13;;;;;;;26.60;12.68;;;16.80;99.90;;;;;;5086364;28;20031;-51
2023/07/28 04:11:39;;;;;;;34.72;13.93;;;16.80;99.90;;;;;;5088898;28;20378;-55
2023/07/28 04:14:05;;;;;;;24.00;12.77;;;16.80;99.90;;;;;;5088291;28;20028;-55
2023/07/28 04:16:30;;;;;;;26.17;13.13;;;16.80;99.90;;;;;;5088521;28;20410;-55
2023/07/28 04:18:57;;;;;;;21.98;11.25;;;16.80;99.90;;;;;;5088456;28;20395;-55
2023/07/28 04:21:22;;;;;;;26.70;12.88;;;16.80;99.90;;;;;;5070394;28;20107;-54
2023/07/28 04:23:48;;;;;;;33.05;13.20;;;16.80;99.90;;;;;;5089043;28;20103;-54
2023/07/28 04:26:13;;;;;;;26.88;11.48;;;16.80;99.90;;;;;;5092098;28;20103;-54
2023/07/28 04:28:39;;;;;;;15.38;9.27;;;16.80;99.90;;;;;;5091600;28;20059;-54
2023/07/28 04:31:05;;;;;;;31.63;11.65;;;16.80;99.90;;;;;;5091658;28;20117;-53
2023/07/28 04:33:30;;;;;;;31.85;11.38;;;16.80;99.90;;;;;;5072749;28;20085;-54
2023/07/28 04:35:56;;;;;;;18.83;9.73;;;16.80;99.90;;;;;;5091129;28;20481;-55
2023/07/28 04:38:22;;;;;;;21.67;10.20;;;16.80;99.90;;;;;;5091411;28;20138;-55
2023/07/28 04:40:47;;;;;;;26.73;11.05;;;16.90;99.90;;;;;;5091768;28;20374;-55
2023/07/28 04:43:12;;;;;;;20.50;10.57;;;16.80;99.90;;;;;;5091334;28;20535;-54
2023/07/28 04:45:38;;;;;;;19.38;10.93;;;16.80;99.90;;;;;;5093640;28;20023;-54
2023/07/28 04:48:04;;;;;;;26.83;11.98;;;16.80;99.90;;;;;;5096803;28;20020;-55
2023/07/28 04:50:29;;;;;;;27.63;11.65;;;16.80;99.90;;;;;;5104190;28;20063;-53
2023/07/28 04:52:55;;;;;;;19.60;9.98;;;16.80;99.90;;;;;;5100970;28;20624;-54
2023/07/28 04:55:20;;;;;;;18.48;10.90;;;16.80;99.90;;;;;;5091088;28;20416;-54
2023/07/28 04:57:46;;;;;;;20.70;10.10;;;16.80;99.90;;;;;;5091490;28;20023;-55
2023/07/28 05:00:12;;;;;;;28.33;10.63;;;16.80;99.90;;;;;;5091522;28;20073;-55
2023/07/28 05:02:38;;;;;;;22.27;10.45;;;16.80;99.90;;;;;;5073144;28;20028;-57
2023/07/28 05:05:04;;;;;;;21.20;9.13;;;16.80;99.90;;;;;;5091034;28;20093;-55
2023/07/28 05:07:29;;;;;;;19.13;9.27;;;16.90;99.90;;;;;;5090862;28;20054;-55
2023/07/28 05:09:55;;;;;;;18.95;9.98;;;16.90;99.90;;;;;;5091916;28;20478;-55
2023/07/28 05:12:20;;;;;;;24.60;9.23;;;16.80;99.90;;;;;;5111228;28;20472;-54
2023/07/28 05:14:46;;;;;;;17.17;9.00;;;16.90;99.90;;;;;;5075856;28;20032;-54
2023/07/28 05:17:12;;;;;;;18.58;9.02;;;16.90;99.90;;;;;;5098288;28;20110;-55
2023/07/28 05:19:37;;;;;;;18.98;8.90;;;17.00;99.90;;;;;;5072222;28;20099;-54
2023/07/28 05:22:03;;;;;;;19.52;9.38;;;16.90;99.90;;;;;;5089877;28;20043;-55
2023/07/28 05:24:28;;;;;;;22.48;9.57;;;16.90;99.90;;;;;;5095561;28;20023;-54
2023/07/28 05:26:54;;;;;;;20.98;8.95;;;16.90;99.90;;;;;;5090583;28;20024;-54
2023/07/28 05:29:19;;;;;;;19.13;9.05;;;16.90;99.90;;;;;;5090586;28;20028;-54
2023/07/28 05:31:45;;;;;;;16.83;8.73;;;16.90;99.90;;;;;;5090342;28;20978;-53
2023/07/28 05:34:12;;;;;;;22.13;10.48;;;16.90;99.90;;;;;;5092396;28;20020;-53
2023/07/28 05:36:40;;;;;;;17.70;9.10;;;16.90;99.90;;;;;;5092282;28;20136;-53
2023/07/28 05:39:05;;;;;;;17.50;8.57;;;16.90;99.90;;;;;;5090120;28;20686;-54
2023/07/28 05:41:31;;;;;;;15.00;7.60;;;16.90;99.90;;;;;;5090294;28;20035;-53
2023/07/28 05:43:56;;;;;;;31.27;9.38;;;16.90;99.90;;;;;;5090023;28;20039;-54
2023/07/28 05:46:22;;;;;;;14.40;7.93;;;16.90;99.90;;;;;;5090622;28;20056;-54
2023/07/28 05:48:47;;;;;;;14.50;8.05;;;16.90;99.90;;;;;;5089471;28;20020;-53
2023/07/28 05:51:13;;;;;;;20.02;9.30;;;17.00;99.90;;;;;;5090184;28;20036;-54
2023/07/28 05:53:38;;;;;;;18.27;8.65;;;17.00;99.90;;;;;;5089513;28;20504;-51
2023/07/28 05:56:04;;;;;;;17.23;8.55;;;17.00;99.90;;;;;;5089913;28;20043;-50
2023/07/28 05:58:29;;;;;;;16.35;8.35;;;17.00;99.90;;;;;;5089892;28;20031;-50
2023/07/28 06:00:55;;;;;;;15.32;8.13;;;17.00;99.90;;;;;;5090545;28;20020;-52
2023/07/28 06:03:21;;;;;;;13.50;8.10;;;17.00;99.90;;;;;;5095320;28;20546;-52
2023/07/28 06:05:47;;;;;;;18.25;8.98;;;17.10;99.90;;;;;;5111059;28;20055;-52
2023/07/28 06:08:13;;;;;;;16.85;8.50;;;17.10;99.90;;;;;;5098852;28;20440;-51
2023/07/28 06:10:39;;;;;;;12.90;8.10;;;17.00;99.90;;;;;;5090168;28;20107;-48
2023/07/28 06:13:04;;;;;;;11.55;7.32;;;17.10;99.90;;;;;;5071322;28;20115;-50
2023/07/28 06:15:30;;;;;;;25.58;9.60;;;17.20;99.90;;;;;;5071848;28;20013;-51
2023/07/28 06:17:55;;;;;;;18.65;8.85;;;17.10;99.90;;;;;;5090082;28;20024;-48
2023/07/28 06:20:21;;;;;;;14.50;8.00;;;17.20;99.90;;;;;;5090084;28;20067;-52
2023/07/28 06:22:46;;;;;;;18.20;8.90;;;17.10;99.90;;;;;;5089530;28;20500;-51
2023/07/28 06:25:12;;;;;;;17.27;8.32;;;17.20;99.90;;;;;;5089689;28;20397;-51
2023/07/28 06:27:38;;;;;;;14.82;8.27;;;17.20;99.90;;;;;;5090147;28;20051;-52
2023/07/28 06:30:05;;;;;;;11.45;7.68;;;17.20;99.90;;;;;;5071902;28;20024;-52
2023/07/28 06:32:30;;;;;;;12.23;8.10;;;17.20;99.90;;;;;;5089719;28;20069;-52
2023/07/28 06:34:57;;;;;;;18.85;8.75;;;17.20;99.90;;;;;;5106842;28;20098;-51
2023/07/28 06:37:23;;;;;;;11.95;7.68;;;17.20;99.90;;;;;;5096579;28;20012;-52
2023/07/28 06:39:49;;;;;;;14.00;8.48;;;17.20;99.90;;;;;;5089552;28;20028;-50
2023/07/28 06:42:16;;;;;;;8.98;6.78;;;17.20;99.90;;;;;;5089479;28;20091;-50
2023/07/28 06:44:42;;;;;;;14.30;8.38;;;17.20;99.90;;;;;;5071022;28;20016;-52
2023/07/28 06:47:07;;;;;;;11.27;7.20;;;17.20;99.90;;;;;;5088427;28;20024;-52
2023/07/28 06:49:33;;;;;;;14.20;8.02;;;17.20;99.90;;;;;;5089612;28;20381;-49
2023/07/28 06:51:58;;;;;;;11.95;7.32;;;17.30;99.90;;;;;;5089159;28;20039;-49
2023/07/28 06:54:24;;;;;;;16.00;8.90;;;17.30;99.90;;;;;;5089205;28;20028;-50
2023/07/28 06:56:50;;;;;;;20.98;8.20;;;17.30;99.90;;;;;;5089321;28;20024;-52
2023/07/28 06:59:15;;;;;;;14.63;8.10;;;17.30;99.90;;;;;;5089622;28;20020;-50
2023/07/28 07:01:41;;;;;;;12.80;7.93;;;17.40;99.90;;;;;;5071485;28;20023;-49
2023/07/28 07:04:07;;;;;;;17.00;8.30;;;17.40;99.90;;;;;;5099635;28;20450;-48
2023/07/28 07:06:32;;;;;;;10.98;7.47;;;17.40;99.90;;;;;;5085564;28;20057;-50
2023/07/28 07:08:58;;;;;;;12.43;7.63;;;17.50;99.90;;;;;;5088918;28;20292;-50
2023/07/28 07:11:23;;;;;;;10.75;7.10;;;17.50;99.90;;;;;;5089632;28;20081;-51
2023/07/28 07:13:49;;;;;;;10.70;7.07;;;17.50;99.90;;;;;;5070843;28;20043;-49
2023/07/28 07:16:16;;;;;;;10.52;6.63;;;17.60;99.90;;;;;;5089405;28;20098;-50
2023/07/28 07:18:45;;;;;;;10.45;7.68;;;17.70;99.90;;;;;;5088941;28;20012;-50
2023/07/28 07:21:10;;;;;;;9.25;6.95;;;17.70;99.90;;;;;;5089054;28;20181;-51
2023/07/28 07:23:37;;;;;;;11.68;7.95;;;17.70;99.90;;;;;;5087667;28;20115;-50
2023/07/28 07:26:03;;;;;;;8.48;6.80;;;17.80;99.90;;;;;;5107152;28;20034;-48
2023/07/28 07:28:28;;;;;;;10.07;7.00;;;17.80;99.90;;;;;;5095927;28;20020;-51
2023/07/28 07:30:54;;;;;;;7.05;6.25;;;17.80;99.90;;;;;;5089087;28;20501;-50
2023/07/28 07:33:20;;;;;;;8.80;5.93;;;17.80;99.90;;;;;;5070338;28;20027;-48
2023/07/28 07:35:46;;;;;;;6.50;5.82;;;17.80;99.90;;;;;;5089004;28;20039;-51
2023/07/28 07:38:11;;;;;;;6.60;5.07;;;17.90;99.90;;;;;;5099070;28;20046;-50
2023/07/28 07:40:37;;;;;;;5.35;4.85;;;18.00;99.90;;;;;;5084861;28;20016;-49
2023/07/28 07:43:06;;;;;;;5.38;4.82;;;18.10;99.90;;;;;;5089017;28;20020;-48
2023/07/28 07:45:32;;;;;;;8.00;5.00;;;18.10;99.90;;;;;;5089099;28;20498;-48
2023/07/28 07:47:58;;;;;;;8.80;5.00;;;18.20;99.90;;;;;;5088989;28;20411;-49
2023/07/28 07:50:24;;;;;;;5.15;4.15;;;18.30;99.90;;;;;;5108949;28;20024;-48
2023/07/28 07:52:50;;;;;;;5.10;4.60;;;18.40;99.90;;;;;;5073993;28;20402;-51
2023/07/28 07:55:15;;;;;;;5.55;4.47;;;18.60;99.90;;;;;;5088276;28;20016;-50
2023/07/28 07:57:41;;;;;;;6.07;4.32;;;18.70;99.90;;;;;;5070533;28;20124;-52
2023/07/28 08:00:08;;;;;;;5.70;4.75;;;18.80;99.90;;;;;;5092099;28;20012;-51
2023/07/28 08:02:34;;;;;;;5.18;4.53;;;19.00;99.90;;;;;;5091991;28;20028;-52
2023/07/28 08:04:59;;;;;;;5.15;4.65;;;19.10;99.90;;;;;;5088972;28;20028;-52
2023/07/28 08:07:25;;;;;;;5.25;3.90;;;19.20;99.90;;;;;;5073637;28;20020;-48
2023/07/28 08:09:51;;;;;;;5.47;3.80;;;19.10;99.90;;;;;;5092536;28;20043;-51
2023/07/28 08:12:16;;;;;;;4.40;3.33;;;19.20;99.90;;;;;;5092095;28;20028;-51
2023/07/28 08:14:42;;;;;;;4.63;3.60;;;19.20;99.90;;;;;;5092254;28;20470;-48
2023/07/28 08:17:09;;;;;;;3.70;3.40;;;19.20;99.90;;;;;;5074193;28;20122;-49
2023/07/28 08:19:35;;;;;;;5.45;4.00;;;19.20;99.90;;;;;;5106499;28;20656;-52
2023/07/28 08:22:03;;;;;;;4.10;3.70;;;19.20;99.90;;;;;;5102613;28;20056;-50
2023/07/28 08:24:29;;;;;;;3.80;3.50;;;19.20;99.90;;;;;;5091928;28;20016;-51
2023/07/28 08:26:54;;;;;;;3.72;3.40;;;19.20;99.90;;;;;;5092307;28;20034;-50
2023/07/28 08:29:20;;;;;;;3.88;3.47;;;19.30;99.90;;;;;;5091999;28;20035;-50
2023/07/28 08:31:45;;;;;;;4.50;3.42;;;19.30;99.90;;;;;;5090685;28;20489;-50
2023/07/28 08:34:11;;;;;;;4.20;3.13;;;19.40;99.90;;;;;;5088617;28;20043;-50
2023/07/28 08:36:36;;;;;;;5.78;3.60;;;19.30;99.90;;;;;;5085703;28;20024;-48
2023/07/28 08:39:03;;;;;;;4.20;3.80;;;19.30;99.90;;;;;;5091502;28;20016;-51
2023/07/28 08:41:28;;;;;;;4.75;3.65;;;19.30;99.90;;;;;;5091657;28;20016;-52
2023/07/28 08:43:54;;;;;;;4.55;4.15;;;19.30;99.90;;;;;;5091482;28;20020;-50
2023/07/28 08:46:20;;;;;;;4.93;4.10;;;19.30;99.90;;;;;;5091452;28;20024;-51
2023/07/28 08:48:46;;;;;;;5.93;3.95;;;19.30;99.90;;;;;;5098654;28;20027;-51
2023/07/28 08:51:13;;;;;;;7.57;3.92;;;19.30;99.90;;;;;;5109432;28;20054;-48
2023/07/28 08:53:39;;;;;;;5.03;4.43;;;19.30;99.90;;;;;;5090679;28;20052;-52
2023/07/28 08:56:05;;;;;;;4.57;4.13;;;19.30;99.90;;;;;;5091414;28;20097;-50
2023/07/28 08:58:30;;;;;;;5.85;4.13;;;19.30;99.90;;;;;;5073366;28;20043;-52
2023/07/28 09:01:00;;;;;;;4.70;4.00;;;19.30;99.90;;;;;;5091245;28;20060;-49
2023/07/28 09:03:27;;;;;;;4.33;3.93;;;19.40;99.90;;;;;;5090900;28;20024;-50
2023/07/28 09:06:00;;;;;;;4.40;3.40;;;19.90;99.90;;;;;;5091322;28;20095;-51
2023/07/28 09:08:25;;;;;;;8.60;3.97;;;20.10;99.90;;;;;;5091275;28;20084;-52
2023/07/28 09:10:51;;;;;;;4.30;3.88;;;20.10;99.90;;;;;;5072113;28;20115;-51
2023/07/28 09:13:18;;;;;;;4.03;3.72;;;20.20;99.90;;;;;;5072519;28;20057;-50
2023/07/28 09:15:44;;;;;;;4.93;4.18;;;20.60;99.90;;;;;;5091101;28;20020;-48
2023/07/28 09:18:17;;;;;;;4.05;3.75;;;20.80;99.90;;;;;;5092871;28;20440;-49
2023/07/28 09:20:43;;;;;;;5.85;3.70;;;20.90;99.90;;;;;;5095707;28;20020;-48
2023/07/28 09:23:10;;;;;;;4.75;3.40;;;20.90;99.90;;;;;;5090515;28;20403;-48
2023/07/28 09:25:37;;;;;;;4.90;3.92;;;21.00;99.90;;;;;;5090686;28;20031;-49
2023/07/28 09:28:03;;;;;;;4.10;3.80;;;21.00;99.90;;;;;;5090614;28;20362;-48
2023/07/28 09:30:47;;;;;;;8.60;3.92;;;21.00;99.90;;;;;;5092082;28;20123;-47
2023/07/28 09:33:13;;;;;;;4.22;3.85;;;20.80;99.90;;;;;;5071717;28;20032;-47
2023/07/28 09:35:49;;;;;;;3.80;3.30;;;20.50;99.90;;;;;;5072359;28;20404;-51
2023/07/28 09:38:16;;;;;;;4.20;3.88;;;20.20;99.90;;;;;;5090063;28;20024;-50
2023/07/28 09:40:43;;;;;;;4.82;4.30;;;20.00;99.90;;;;;;5069912;28;20074;-49
2023/07/28 09:43:10;;;;;;;4.55;4.15;;;19.90;99.90;;;;;;5071712;28;20062;-50
2023/07/28 09:45:35;;;;;;;5.72;4.72;;;20.00;99.90;;;;;;5090251;28;20020;-48
2023/07/28 09:48:04;;;;;;;4.93;4.47;;;20.00;99.90;;;;;;5090884;28;20393;-49
2023/07/28 09:50:34;;;;;;;4.47;4.07;;;20.00;99.90;;;;;;5095693;28;20084;-47
2023/07/28 09:53:03;;;;;;;4.95;4.43;;;20.00;99.90;;;;;;5087376;28;20043;-48
2023/07/28 09:55:29;;;;;;;5.72;4.50;;;20.10;99.90;;;;;;5074733;28;20343;-48
2023/07/28 09:57:57;;;;;;;4.65;4.25;;;20.00;99.90;;;;;;5090019;28;20028;-48
2023/07/28 10:00:23;;;;;;;4.93;4.03;;;20.10;99.90;;;;;;5071540;28;20016;-48
2023/07/28 10:02:50;;;;;;;4.18;3.65;;;20.30;99.90;;;;;;5089963;28;20032;-48
2023/07/28 10:05:16;;;;;;;4.20;3.80;;;20.50;99.90;;;;;;5089758;28;20107;-48
2023/07/28 10:07:44;;;;;;;4.57;3.70;;;21.10;99.90;;;;;;5087098;28;20169;-48
2023/07/28 10:10:13;;;;;;;4.85;3.85;;;21.50;99.90;;;;;;5089844;28;20107;-47
2023/07/28 10:12:45;;;;;;;4.40;4.00;;;21.90;99.90;;;;;;5089508;28;20105;-51
2023/07/28 10:15:17;;;;;;;4.35;4.03;;;22.10;99.90;;;;;;5090143;28;20560;-49
2023/07/28 10:17:54;;;;;;;5.80;3.95;;;22.10;99.90;;;;;;5090007;28;20058;-47
2023/07/28 10:20:38;;;;;;;4.35;3.47;;;22.30;99.90;;;;;;5074195;28;20071;-46
2023/07/28 10:23:15;;;;;;;3.60;3.30;;;22.40;99.90;;;;;;5097415;28;20020;-48
2023/07/28 10:25:41;;;;;;;3.90;3.60;;;22.30;99.90;;;;;;5087166;28;20495;-47
2023/07/28 10:28:31;;;;;;;4.97;4.28;;;22.30;99.90;;;;;;5093946;28;20063;-49
2023/07/28 10:30:58;;;;;;;4.00;3.70;;;22.30;99.90;;;;;;5090045;28;20081;-49
2023/07/28 10:33:38;;;;;;;6.50;4.10;;;22.30;99.90;;;;;;5089357;28;20099;-47
2023/07/28 10:36:13;;;;;;;4.05;3.45;;;22.20;99.90;;;;;;5089533;28;20095;-50
2023/07/28 10:38:39;;;;;;;4.03;3.63;;;22.20;99.90;;;;;;5088980;28;20012;-48
2023/07/28 10:41:08;;;;;;;5.88;3.20;;;22.20;99.90;;;;;;5093787;28;20133;-53
2023/07/28 10:43:34;;;;;;;4.73;3.40;;;22.30;99.90;;;;;;5089850;28;20056;-48
2023/07/28 10:46:00;;;;;;;3.25;3.05;;;22.30;99.90;;;;;;5093531;28;20766;-47
2023/07/28 10:48:26;;;;;;;4.05;3.30;;;22.60;99.90;;;;;;5071137;28;20110;-48
2023/07/28 10:50:51;;;;;;;3.95;2.70;;;23.40;99.90;;;;;;5095109;28;20126;-50
2023/07/28 10:53:17;;;;;;;3.60;2.88;;;24.30;99.90;;;;;;5096628;28;20031;-46
2023/07/28 10:55:43;;;;;;;4.20;2.20;;;25.40;99.90;;;;;;5097274;28;20496;-49
2023/07/28 10:58:09;;;;;;;2.53;2.20;;;26.00;99.90;;;;;;5094326;28;20032;-48
2023/07/28 11:00:35;;;;;;;4.07;2.83;;;26.30;99.90;;;;;;5097046;28;20088;-48
2023/07/28 11:03:01;;;;;;;2.53;1.85;;;26.10;99.90;;;;;;5089087;28;20024;-47
2023/07/28 11:05:29;;;;;;;3.00;2.72;;;25.90;99.90;;;;;;5089115;28;20500;-49
2023/07/28 11:08:00;;;;;;;3.97;2.10;;;25.80;99.90;;;;;;5071061;28;20024;-51
2023/07/28 11:10:28;;;;;;;2.13;2.03;;;25.80;99.90;;;;;;5074348;28;20032;-48
2023/07/28 11:12:57;;;;;;;2.70;1.60;;;26.80;99.90;;;;;;5109640;28;20099;-51
2023/07/28 11:15:24;;;;;;;2.25;1.85;;;27.40;99.90;;;;;;5089605;28;20470;-48
2023/07/28 11:17:51;;;;;;;2.20;1.90;;;27.60;99.90;;;;;;5089489;28;20061;-50
2023/07/28 11:20:24;;;;;;;2.88;1.63;;;27.70;99.90;;;;;;5089493;28;20051;-49
2023/07/28 11:22:54;;;;;;;2.70;1.40;;;27.80;99.90;;;;;;5071025;28;20521;-51
2023/07/28 11:25:20;;;;;;;;;;;28.30;99.90;;;;;;5089251;28;20031;-51
2023/07/28 11:27:47;;;;;;;1.60;1.50;;;28.60;99.90;;;;;;5088078;28;19908;-48
2023/07/28 11:30:16;;;;;;;1.85;1.20;;;29.30;97.00;;;;;;5097031;28;20024;-51
2023/07/28 11:32:47;;;;;;;1.85;1.20;;;28.80;98.40;;;;;;5103588;28;20024;-48
2023/07/28 11:35:15;;;;;;;1.52;1.42;;;28.40;98.10;;;;;;5092736;28;20459;-48
2023/07/28 11:37:42;;;;;;;3.50;1.60;;;27.80;98.70;;;;;;5092591;28;20381;-48
2023/07/28 11:40:12;;;;;;;3.28;1.73;;;27.40;98.50;;;;;;5109912;28;20151;-51
2023/07/28 11:42:39;;;;;;;2.03;1.83;;;26.90;99.80;;;;;;5084870;28;20448;-50
2023/07/28 11:45:06;;;;;;;2.78;1.92;;;26.50;99.50;;;;;;5104174;28;20038;-49
2023/07/28 11:47:32;;;;;;;2.00;1.90;;;26.30;99.90;;;;;;5093234;28;20081;-47
2023/07/28 11:49:58;;;;;;;2.40;1.98;;;26.30;99.90;;;;;;5095801;28;20069;-47
2023/07/28 11:52:29;;;;;;;3.20;1.95;;;26.10;99.90;;;;;;5092547;28;20462;-48
2023/07/28 11:54:54;;;;;;;3.15;2.25;;;25.80;99.90;;;;;;5095065;28;20065;-48
2023/07/28 11:57:21;;;;;;;3.45;1.90;;;26.90;99.90;;;;;;5081476;28;20095;-50
2023/07/28 11:59:46;;;;;;;2.63;1.83;;;27.60;99.90;;;;;;5092772;28;20031;-47
2023/07/28 12:02:12;;;;;;;1.85;1.50;;;28.00;98.40;;;;;;5074114;28;20024;-50
2023/07/28 12:04:39;;;;;;;1.98;1.80;;;28.80;97.60;;;;;;5092037;28;20516;-47
2023/07/28 12:07:14;;;;;;;3.55;1.38;;;29.10;96.20;;;;;;5092426;28;20020;-50
2023/07/28 12:09:46;;;;;;;1.67;1.58;;;29.30;95.70;;;;;;5105609;28;20069;-49
2023/07/28 12:12:12;;;;;;;1.65;1.55;;;29.20;95.40;;;;;;5099850;28;20028;-48
2023/07/28 12:14:38;;;;;;;1.83;1.73;;;28.70;95.40;;;;;;5093264;28;20500;-50
2023/07/28 12:17:12;;;;;;;1.67;1.58;;;28.10;96.30;;;;;;5090682;28;20101;-48
2023/07/28 12:20:10;;;;;;;1.80;1.70;;;27.60;97.30;;;;;;5071887;28;20028;-49
2023/07/28 12:22:47;;;;;;;3.83;1.90;;;26.90;96.80;;;;;;5059447;28;20442;-51
2023/07/28 12:25:14;;;;;;;3.10;1.67;;;26.30;98.80;;;;;;5083473;28;20047;-47
2023/07/28 12:27:40;;;;;;;1.88;1.77;;;26.20;99.30;;;;;;5073145;28;20032;-49
2023/07/28 12:30:08;;;;;;;1.92;1.80;;;25.90;98.90;;;;;;5091032;28;20397;-47
2023/07/28 12:32:34;;;;;;;3.85;2.20;;;25.70;99.80;;;;;;5097877;28;20016;-49
2023/07/28 12:35:00;;;;;;;6.38;2.00;;;25.50;99.90;;;;;;5092273;28;20202;-48